Stockholm, Sweden

6:47 PM CEST on September 21, 2014 (GMT +0200)
Solna | Change Station
CLOSE
Current Station
Personal Weather Station
Location: Solna, Stockholm
Elevation: 72 ft
Nearby Weather Stations

Elev 72 ft 59.35 °N, 18.02 °E | Updated 20 seconds ago

Rain Showers
Showers Rain Thunderstorm
54.1 °F
Feels Like 54.1 °F
N
0.0
Wind Variable Wind from North
Gusts 2.2 mph

Today
High -- | Low -- °F
--% Chance of Precip.
Yesterday
High -- | Low -- °F
Precip. -- in
6:29 AM 6:51 PM
Waning Crescent, 6% visible
Pressure 29.62 in
Visibility 6.2 miles
Clouds Few 100 ft
Scattered Clouds 4200 ft
Overcast 6100 ft
Dew Point 54 °F
Humidity 99%
Rainfall 0.87 in
Snow Depth Not available.
UV 0 out of 12
Pollen Not available.
Air Quality Not available.
Flu Activity Not available.
METAR ESSB 211620Z 02006KT 350V060 9999 SHRA TS FEW001 SCT042CB OVC061 12/11 Q1003

More Conditions Fewer Conditions

Pressure 29.62 in
Visibility 6.2 miles
Clouds Few 100 ft
Scattered Clouds 4200 ft
Overcast 6100 ft
Dew Point 54 °F
Humidity 99%
Rainfall 0.87 in
Snow Depth Not available.
UV 0 out of 12
Pollen Not available.
Air Quality Not available.
Flu Activity Not available.
METAR ESSB 211620Z 02006KT 350V060 9999 SHRA TS FEW001 SCT042CB OVC061 12/11 Q1003

More Conditions Fewer Conditions

10-Day Weather Forecast

Almanac

Astronomy

Sep. 21, 2014 Rise Set
Actual Time 6:29 AM CEST 6:51 PM CEST
Civil Twilight 5:48 AM CEST 7:31 PM CEST
Nautical Twilight 4:59 AM CEST 8:20 PM CEST
Astronomical Twilight 4:05 AM CEST 9:14 PM CEST
Moon 3:16 AM CEST 5:40 PM CEST
Length of Visible Light 13h 43m
Length of Day
12h 21m
Tomorrow will be 5m 15s shorter.
Waning Crescent, 6% of the Moon is Illuminated
Today
Waning Crescent
Sep 24
New
Oct 1
First Quarter
Oct 8
Full
Oct 15
Last Quarter

Today's Extremes

Country Highs Country Lows

Community

WunderPhotos

Upload Photos

1,755,186 photos uploaded!

Nearby

Snow Depth

Not available.

Earthquake Activity

City Distance Mag. Time & Date
No recent earthquake activity has been reported nearby.
Minimum magnitude displayed is 2.5.

Coastal Water Temperatures

Place Temperature
No Stations Reporting

Nearby Weather Stations